Time;durP1;ratioP1;P1;durP2;ratioP2;P2;SDS_P1;SDS_P2;PMS_P1;PMS_P2;Temp;Humidity;BMP_temperature;BMP_pressure;BME280_temperature;BME280_humidity;BME280_pressure;Samples;Min_cycle;Max_cycle;Signal;HPM_P1;HPM_P2
2022/01/10 00:02:10;;;;;;;6.72;3.20;;;;;;;;;;5022677;28;20060;-43
2022/01/10 00:04:36;;;;;;;4.75;2.97;;;;;;;;;;5022668;28;20506;-43
2022/01/10 00:07:02;;;;;;;4.68;3.17;;;;;;;;;;5022529;28;20543;-43
2022/01/10 00:09:27;;;;;;;10.35;3.60;;;;;;;;;;5022191;28;20049;-44
2022/01/10 00:11:53;;;;;;;4.50;2.95;;;;;;;;;;5022505;28;20029;-42
2022/01/10 00:14:18;;;;;;;4.43;3.03;;;;;;;;;;5022681;28;20034;-43
2022/01/10 00:16:44;;;;;;;5.07;3.22;;;;;;;;;;5023099;28;20115;-42
2022/01/10 00:19:09;;;;;;;7.63;2.83;;;;;;;;;;5042744;28;20849;-42
2022/01/10 00:21:35;;;;;;;3.55;2.72;;;;;;;;;;5041677;28;20461;-43
2022/01/10 00:24:00;;;;;;;4.70;2.90;;;;;;;;;;5042346;28;20475;-43
2022/01/10 00:26:26;;;;;;;5.95;3.20;;;;;;;;;;5042045;28;20032;-43
2022/01/10 00:28:51;;;;;;;5.30;3.00;;;;;;;;;;5042166;28;20159;-43
2022/01/10 00:31:17;;;;;;;5.03;2.63;;;;;;;;;;5042415;28;20108;-43
2022/01/10 00:33:43;;;;;;;4.05;2.55;;;;;;;;;;5042096;28;20039;-43
2022/01/10 00:36:08;;;;;;;3.92;2.38;;;;;;;;;;5042203;28;20454;-43
2022/01/10 00:38:34;;;;;;;3.55;2.30;;;;;;;;;;5041738;28;20028;-43
2022/01/10 00:41:00;;;;;;;4.90;2.30;;;;;;;;;;5041670;28;20033;-43
2022/01/10 00:43:35;;;;;;;4.53;2.30;;;;;;;;;;5041880;28;20025;-42
2022/01/10 00:46:01;;;;;;;3.65;2.40;;;;;;;;;;5042429;28;20029;-43
2022/01/10 00:48:27;;;;;;;4.10;2.53;;;;;;;;;;5041078;28;20029;-43
2022/01/10 00:50:52;;;;;;;2.97;2.20;;;;;;;;;;5042393;28;20073;-43
2022/01/10 00:53:18;;;;;;;3.80;2.35;;;;;;;;;;5041582;28;20777;-43
2022/01/10 00:55:43;;;;;;;3.13;2.15;;;;;;;;;;5041494;28;20113;-43
2022/01/10 00:58:09;;;;;;;4.38;2.35;;;;;;;;;;5043498;28;20036;-42
2022/01/10 01:00:35;;;;;;;3.78;1.90;;;;;;;;;;5045028;28;20029;-42
2022/01/10 01:03:00;;;;;;;3.25;2.20;;;;;;;;;;5045781;28;20033;-43
2022/01/10 01:05:26;;;;;;;4.72;2.50;;;;;;;;;;5045074;28;20025;-43
2022/01/10 01:07:52;;;;;;;4.18;2.00;;;;;;;;;;5045025;28;20029;-44
2022/01/10 01:15:45;;;;;;;4.20;2.05;;;;;;;;;;5045548;28;20411;-43
2022/01/10 01:25:38;;;;;;;6.18;1.90;;;;;;;;;;5025307;28;20869;-43
2022/01/10 01:28:04;;;;;;;3.63;1.42;;;;;;;;;;5025230;28;20033;-42
2022/01/10 01:30:29;;;;;;;2.53;1.65;;;;;;;;;;5023045;28;20522;-43
2022/01/10 01:32:55;;;;;;;2.78;1.70;;;;;;;;;;5024685;28;20497;-43
2022/01/10 01:35:24;;;;;;;3.03;1.70;;;;;;;;;;5038783;28;20094;-43
2022/01/10 01:37:50;;;;;;;3.15;1.92;;;;;;;;;;5025015;28;20075;-43
2022/01/10 01:40:15;;;;;;;2.53;1.40;;;;;;;;;;5024660;28;20033;-42
2022/01/10 01:42:43;;;;;;;3.25;1.85;;;;;;;;;;5024215;28;20029;-43
2022/01/10 01:45:10;;;;;;;1.60;1.30;;;;;;;;;;5024843;28;20080;-44
2022/01/10 01:47:36;;;;;;;2.47;1.88;;;;;;;;;;5024471;28;20021;-43
2022/01/10 01:50:02;;;;;;;2.35;1.58;;;;;;;;;;5024999;28;20072;-43
2022/01/10 01:52:28;;;;;;;1.70;1.60;;;;;;;;;;5024796;28;20021;-43
2022/01/10 01:54:53;;;;;;;3.25;1.52;;;;;;;;;;5024668;28;20056;-43
2022/01/10 01:57:19;;;;;;;3.10;1.30;;;;;;;;;;5024836;28;20036;-41
2022/01/10 01:59:44;;;;;;;3.17;1.70;;;;;;;;;;5024798;28;20021;-43
2022/01/10 02:02:10;;;;;;;2.05;1.63;;;;;;;;;;5024229;28;20496;-42
2022/01/10 02:04:36;;;;;;;1.90;1.70;;;;;;;;;;5024818;28;20033;-43
2022/01/10 02:07:02;;;;;;;1.67;1.45;;;;;;;;;;5023070;28;20068;-42
2022/01/10 02:09:27;;;;;;;1.83;1.63;;;;;;;;;;5021857;28;20144;-43
2022/01/10 02:11:53;;;;;;;2.03;1.58;;;;;;;;;;5024492;28;20059;-42
2022/01/10 02:14:19;;;;;;;2.10;1.80;;;;;;;;;;5024368;28;20083;-41
2022/01/10 02:16:54;;;;;;;1.90;1.70;;;;;;;;;;5024563;28;20029;-43
2022/01/10 02:19:20;;;;;;;4.13;1.70;;;;;;;;;;5044157;28;20059;-43
2022/01/10 02:21:45;;;;;;;2.03;1.70;;;;;;;;;;5043550;28;20033;-43
2022/01/10 02:24:11;;;;;;;1.83;1.60;;;;;;;;;;5044150;28;20045;-43
2022/01/10 02:26:37;;;;;;;1.73;1.20;;;;;;;;;;5043411;28;20024;-43
2022/01/10 02:29:03;;;;;;;2.13;1.50;;;;;;;;;;5043913;28;20029;-42
2022/01/10 02:31:29;;;;;;;2.92;1.73;;;;;;;;;;5043758;28;20034;-43
2022/01/10 02:33:57;;;;;;;1.83;1.55;;;;;;;;;;5043804;28;20075;-42
2022/01/10 02:36:27;;;;;;;2.67;1.70;;;;;;;;;;5043689;28;20060;-43
2022/01/10 02:39:00;;;;;;;1.88;1.27;;;;;;;;;;5042267;28;20035;-42
2022/01/10 02:41:26;;;;;;;4.13;1.83;;;;;;;;;;5043666;28;20040;-42
2022/01/10 02:43:53;;;;;;;1.90;1.50;;;;;;;;;;5043465;28;20033;-41
2022/01/10 02:46:19;;;;;;;2.20;1.70;;;;;;;;;;5043396;28;20063;-41
2022/01/10 02:48:45;;;;;;;3.10;1.60;;;;;;;;;;5043485;28;20032;-43
2022/01/10 02:51:10;;;;;;;3.45;1.50;;;;;;;;;;5044054;28;20461;-43
2022/01/10 02:53:36;;;;;;;2.38;1.58;;;;;;;;;;5043674;28;20039;-43
2022/01/10 02:56:01;;;;;;;1.60;1.50;;;;;;;;;;5043223;28;20029;-43
2022/01/10 02:58:27;;;;;;;1.73;1.38;;;;;;;;;;5043139;28;20025;-43
2022/01/10 03:00:53;;;;;;;2.45;1.60;;;;;;;;;;5043120;28;20431;-43
2022/01/10 03:03:18;;;;;;;2.13;1.55;;;;;;;;;;5043749;28;20033;-43
2022/01/10 03:05:44;;;;;;;2.17;1.45;;;;;;;;;;5043035;28;20029;-43
2022/01/10 03:08:09;;;;;;;1.88;1.25;;;;;;;;;;5043263;28;20051;-43
2022/01/10 03:10:35;;;;;;;4.55;1.42;;;;;;;;;;5043145;28;20032;-42
2022/01/10 03:13:01;;;;;;;2.65;1.30;;;;;;;;;;5043428;28;20108;-43
2022/01/10 03:15:26;;;;;;;3.78;1.50;;;;;;;;;;5042723;28;20075;-42
2022/01/10 03:17:52;;;;;;;3.22;1.08;;;;;;;;;;5043348;28;20071;-43
2022/01/10 03:20:18;;;;;;;2.80;1.45;;;;;;;;;;5042893;28;20041;-43
2022/01/10 03:22:43;;;;;;;1.25;1.13;;;;;;;;;;5043246;28;20483;-43
2022/01/10 03:25:09;;;;;;;1.58;1.40;;;;;;;;;;5043023;28;20527;-43
2022/01/10 03:27:34;;;;;;;1.40;0.93;;;;;;;;;;5042813;28;20029;-43
2022/01/10 03:30:00;;;;;;;2.85;1.20;;;;;;;;;;5042721;28;20099;-43
2022/01/10 03:32:26;;;;;;;3.00;1.02;;;;;;;;;;5042923;28;20033;-42
2022/01/10 03:34:51;;;;;;;1.23;0.98;;;;;;;;;;5042909;28;20036;-43
2022/01/10 03:37:17;;;;;;;2.53;1.23;;;;;;;;;;5042868;28;20514;-43
2022/01/10 03:39:42;;;;;;;1.70;1.17;;;;;;;;;;5042779;28;20074;-42
2022/01/10 03:42:08;;;;;;;3.22;1.23;;;;;;;;;;5042621;28;20037;-43
2022/01/10 03:44:33;;;;;;;1.77;1.10;;;;;;;;;;5042752;28;20533;-43
2022/01/10 03:46:59;;;;;;;4.55;1.90;;;;;;;;;;5043003;28;20029;-43
2022/01/10 03:49:25;;;;;;;2.03;1.55;;;;;;;;;;5042910;28;20036;-42
2022/01/10 03:51:50;;;;;;;2.75;1.88;;;;;;;;;;5042687;28;20033;-43
2022/01/10 03:54:16;;;;;;;2.65;2.13;;;;;;;;;;5042682;28;20415;-43
2022/01/10 03:56:41;;;;;;;1.92;1.73;;;;;;;;;;5041736;28;20033;-43
2022/01/10 03:59:07;;;;;;;1.90;1.60;;;;;;;;;;5042467;28;20085;-43
2022/01/10 04:01:33;;;;;;;2.13;1.80;;;;;;;;;;5042063;28;20491;-42
2022/01/10 04:03:59;;;;;;;3.08;1.88;;;;;;;;;;5042940;28;20028;-43
2022/01/10 04:06:24;;;;;;;2.35;1.98;;;;;;;;;;5042328;28;20047;-42
2022/01/10 04:08:50;;;;;;;1.92;1.73;;;;;;;;;;5042389;28;20057;-43
2022/01/10 04:11:15;;;;;;;1.90;1.70;;;;;;;;;;5042807;28;20507;-42
2022/01/10 04:13:41;;;;;;;4.45;2.05;;;;;;;;;;5042451;28;20079;-41
2022/01/10 04:16:07;;;;;;;4.57;1.80;;;;;;;;;;5042229;28;20033;-43
2022/01/10 04:18:32;;;;;;;3.30;1.95;;;;;;;;;;5041797;28;20087;-42
2022/01/10 04:20:58;;;;;;;2.22;1.80;;;;;;;;;;5042627;28;20136;-43
2022/01/10 04:23:24;;;;;;;2.53;1.70;;;;;;;;;;5042465;28;20040;-43
2022/01/10 04:25:49;;;;;;;2.60;1.40;;;;;;;;;;5042502;28;20021;-43
2022/01/10 04:28:15;;;;;;;5.72;1.80;;;;;;;;;;5042578;28;20036;-43
2022/01/10 04:30:40;;;;;;;3.85;1.63;;;;;;;;;;5041843;28;20056;-43
2022/01/10 04:33:06;;;;;;;3.13;1.88;;;;;;;;;;5043644;28;20031;-43
2022/01/10 04:35:32;;;;;;;1.70;1.60;;;;;;;;;;5045640;28;20120;-42
2022/01/10 04:37:57;;;;;;;3.17;2.10;;;;;;;;;;5046423;28;20044;-42
2022/01/10 04:40:24;;;;;;;3.30;1.73;;;;;;;;;;5045717;28;20443;-42
2022/01/10 04:42:49;;;;;;;3.28;2.10;;;;;;;;;;5045998;28;20024;-43
2022/01/10 04:45:15;;;;;;;2.03;1.83;;;;;;;;;;5045816;28;20031;-43
2022/01/10 04:47:40;;;;;;;2.50;1.60;;;;;;;;;;5045957;28;20044;-43
2022/01/10 04:51:11;;;;;;;1.73;1.50;;;;;;;;;;5045808;28;20028;-44
2022/01/10 04:53:01;;;;;;;3.33;1.60;;;;;;;;;;5032226;28;20633;-43
2022/01/10 04:55:27;;;;;;;2.13;1.70;;;;;;;;;;5045741;28;20045;-43
2022/01/10 04:57:52;;;;;;;2.22;1.80;;;;;;;;;;5045559;28;20781;-42
2022/01/10 05:00:18;;;;;;;1.88;1.67;;;;;;;;;;5044891;28;20028;-43
2022/01/10 05:02:45;;;;;;;1.85;1.40;;;;;;;;;;5045746;28;20025;-42
2022/01/10 05:05:10;;;;;;;3.45;1.95;;;;;;;;;;5044772;28;20044;-43
2022/01/10 05:07:36;;;;;;;2.17;1.67;;;;;;;;;;5045487;28;20033;-43
2022/01/10 05:10:01;;;;;;;1.85;1.63;;;;;;;;;;5044729;28;20431;-43
2022/01/10 05:12:28;;;;;;;2.70;2.10;;;;;;;;;;5042057;28;20104;-43
2022/01/10 05:14:54;;;;;;;2.15;1.70;;;;;;;;;;5028051;28;20475;-43
2022/01/10 05:17:21;;;;;;;2.00;1.70;;;;;;;;;;5045390;28;20090;-43
2022/01/10 05:19:47;;;;;;;4.90;1.45;;;;;;;;;;5043163;28;20087;-43
2022/01/10 05:22:13;;;;;;;16.55;2.63;;;;;;;;;;5040232;28;20632;-43
2022/01/10 05:24:38;;;;;;;24.23;2.90;;;;;;;;;;5037530;28;20032;-43
2022/01/10 05:27:04;;;;;;;16.67;2.15;;;;;;;;;;5039461;28;20078;-43
2022/01/10 05:29:29;;;;;;;19.48;2.67;;;;;;;;;;5045166;28;20083;-42
2022/01/10 05:31:55;;;;;;;8.27;2.35;;;;;;;;;;5046936;28;20033;-36
2022/01/10 05:34:20;;;;;;;17.60;1.95;;;;;;;;;;5046285;28;20036;-39
2022/01/10 05:36:47;;;;;;;9.18;1.90;;;;;;;;;;5046002;28;20098;-40
2022/01/10 05:39:12;;;;;;;10.50;2.50;;;;;;;;;;5046824;28;20035;-35
2022/01/10 05:41:38;;;;;;;20.00;3.25;;;;;;;;;;5046258;28;20451;-37
2022/01/10 05:44:04;;;;;;;24.60;6.15;;;;;;;;;;5046649;28;20108;-36
2022/01/10 05:46:30;;;;;;;12.75;5.82;;;;;;;;;;5045857;28;20064;-39
2022/01/10 05:49:00;;;;;;;13.32;5.28;;;;;;;;;;5046347;28;20025;-35
2022/01/10 05:51:29;;;;;;;14.52;4.60;;;;;;;;;;5045614;28;20032;-39
2022/01/10 05:53:55;;;;;;;9.20;3.53;;;;;;;;;;5045687;28;20032;-33
2022/01/10 05:56:20;;;;;;;10.73;2.97;;;;;;;;;;5034885;28;20029;-32
2022/01/10 05:58:46;;;;;;;7.97;3.45;;;;;;;;;;5025994;28;20561;-39
2022/01/10 06:01:11;;;;;;;9.30;3.70;;;;;;;;;;5024272;28;20021;-36
2022/01/10 06:03:37;;;;;;;5.82;3.25;;;;;;;;;;5024394;28;20052;-40
2022/01/10 06:06:02;;;;;;;1.20;1.10;;;;;;;;;;5024871;28;20064;-40
2022/01/10 06:08:28;;;;;;;4.43;1.42;;;;;;;;;;5024238;28;20435;-39
2022/01/10 06:10:53;;;;;;;2.90;1.45;;;;;;;;;;5024545;28;20029;-34
2022/01/10 06:13:19;;;;;;;4.63;2.30;;;;;;;;;;5024110;28;20108;-39
2022/01/10 06:15:44;;;;;;;3.55;2.28;;;;;;;;;;5024715;28;20397;-33
2022/01/10 06:18:10;;;;;;;2.38;1.23;;;;;;;;;;5025048;28;20029;-38
2022/01/10 06:20:36;;;;;;;1.00;0.68;;;;;;;;;;5024542;28;20488;-41
2022/01/10 06:23:01;;;;;;;1.60;1.20;;;;;;;;;;5026307;28;20056;-39
2022/01/10 06:25:27;;;;;;;1.35;0.90;;;;;;;;;;5026348;28;20025;-35
2022/01/10 06:27:52;;;;;;;0.82;0.73;;;;;;;;;;5025391;28;20112;-33
2022/01/10 06:30:18;;;;;;;2.13;0.90;;;;;;;;;;5025878;28;20029;-39
2022/01/10 06:32:43;;;;;;;1.52;0.98;;;;;;;;;;5025697;28;20028;-38
2022/01/10 06:35:09;;;;;;;0.98;0.60;;;;;;;;;;5026079;28;20107;-37
2022/01/10 06:37:35;;;;;;;2.35;0.73;;;;;;;;;;5025827;28;20028;-40
2022/01/10 06:40:01;;;;;;;1.00;0.73;;;;;;;;;;5026391;28;20040;-37
2022/01/10 06:42:26;;;;;;;1.88;1.20;;;;;;;;;;5025876;28;20423;-36
2022/01/10 06:44:52;;;;;;;3.08;0.80;;;;;;;;;;5026161;28;20025;-39
2022/01/10 06:47:17;;;;;;;1.90;1.00;;;;;;;;;;5025988;28;20036;-37
2022/01/10 06:49:43;;;;;;;2.13;0.90;;;;;;;;;;5025792;28;20121;-38
2022/01/10 06:52:08;;;;;;;1.48;1.10;;;;;;;;;;5026042;28;20094;-40
2022/01/10 06:54:34;;;;;;;1.73;1.00;;;;;;;;;;5025757;28;20120;-37
2022/01/10 06:56:59;;;;;;;1.63;1.08;;;;;;;;;;5025263;28;20349;-34
2022/01/10 06:59:25;;;;;;;1.50;1.00;;;;;;;;;;5025549;28;20039;-38
2022/01/10 07:01:51;;;;;;;5.63;1.55;;;;;;;;;;5024285;28;20048;-39
2022/01/10 07:04:17;;;;;;;7.00;2.28;;;;;;;;;;5025782;28;20116;-36
2022/01/10 07:06:43;;;;;;;3.97;1.73;;;;;;;;;;5025360;28;20025;-39
2022/01/10 07:09:08;;;;;;;7.13;2.00;;;;;;;;;;5025306;28;20493;-39
2022/01/10 07:11:34;;;;;;;7.93;1.77;;;;;;;;;;5025287;28;20025;-35
2022/01/10 07:13:59;;;;;;;3.40;1.73;;;;;;;;;;5025427;28;20036;-34
2022/01/10 07:16:25;;;;;;;5.25;1.95;;;;;;;;;;5025449;28;20021;-38
2022/01/10 07:18:50;;;;;;;4.38;1.70;;;;;;;;;;5025300;28;20036;-36
2022/01/10 07:21:16;;;;;;;3.75;1.70;;;;;;;;;;5025139;28;20473;-33
2022/01/10 07:23:41;;;;;;;4.22;2.17;;;;;;;;;;5025243;28;20029;-38
2022/01/10 07:26:07;;;;;;;4.65;2.00;;;;;;;;;;5025332;28;20416;-36
2022/01/10 07:28:33;;;;;;;3.78;2.13;;;;;;;;;;5024948;28;20111;-39
2022/01/10 07:30:58;;;;;;;4.60;2.13;;;;;;;;;;5025029;28;20055;-38
2022/01/10 07:33:24;;;;;;;3.95;2.25;;;;;;;;;;5023983;28;20042;-35
2022/01/10 07:35:49;;;;;;;3.47;2.30;;;;;;;;;;5024955;28;20464;-34
2022/01/10 07:38:15;;;;;;;3.63;2.30;;;;;;;;;;5025226;28;20018;-37
2022/01/10 07:40:40;;;;;;;3.72;2.08;;;;;;;;;;5025165;28;20044;-39
2022/01/10 07:43:06;;;;;;;3.72;2.28;;;;;;;;;;5024941;28;20029;-36
2022/01/10 07:45:31;;;;;;;2.92;1.83;;;;;;;;;;5024908;28;20029;-37
2022/01/10 07:47:57;;;;;;;2.75;1.80;;;;;;;;;;5025039;28;20095;-34
2022/01/10 07:50:22;;;;;;;3.40;1.95;;;;;;;;;;5023854;28;20021;-32
2022/01/10 07:52:48;;;;;;;2.50;1.90;;;;;;;;;;5026916;28;20025;-38
2022/01/10 07:55:13;;;;;;;4.15;2.20;;;;;;;;;;5024964;28;20056;-37
2022/01/10 07:57:39;;;;;;;2.53;2.10;;;;;;;;;;5024893;28;20550;-37
2022/01/10 08:00:05;;;;;;;4.07;2.53;;;;;;;;;;5025118;28;20029;-39
2022/01/10 08:02:31;;;;;;;12.07;2.17;;;;;;;;;;5024745;28;20494;-37
2022/01/10 08:04:56;;;;;;;14.32;2.20;;;;;;;;;;5024939;28;20032;-35
2022/01/10 08:07:22;;;;;;;15.25;2.20;;;;;;;;;;5023762;28;20021;-40
2022/01/10 08:09:48;;;;;;;4.85;2.00;;;;;;;;;;5028578;28;20041;-41
2022/01/10 08:12:13;;;;;;;8.27;2.30;;;;;;;;;;5028952;28;20462;-40
2022/01/10 08:14:38;;;;;;;5.35;2.05;;;;;;;;;;5028854;28;20104;-36
2022/01/10 08:17:04;;;;;;;6.50;1.83;;;;;;;;;;5028767;28;20434;-36
2022/01/10 08:19:33;;;;;;;5.85;1.85;;;;;;;;;;5028573;28;20021;-41
2022/01/10 08:21:59;;;;;;;4.90;2.00;;;;;;;;;;5028649;28;20033;-38
2022/01/10 08:24:25;;;;;;;11.95;2.20;;;;;;;;;;5027607;28;20494;-40
2022/01/10 08:26:51;;;;;;;5.07;2.25;;;;;;;;;;5027378;28;20021;-36
2022/01/10 08:29:16;;;;;;;4.55;2.00;;;;;;;;;;5028648;28;20044;-39
2022/01/10 08:31:42;;;;;;;3.15;1.80;;;;;;;;;;5028139;28;20521;-38
2022/01/10 08:34:07;;;;;;;5.32;2.15;;;;;;;;;;5028242;28;20029;-39
2022/01/10 08:36:33;;;;;;;3.40;2.03;;;;;;;;;;5027547;28;20029;-36
2022/01/10 08:38:59;;;;;;;4.53;2.08;;;;;;;;;;5028296;28;20034;-39
2022/01/10 08:41:24;;;;;;;2.38;1.60;;;;;;;;;;5028007;28;20067;-39
2022/01/10 08:43:50;;;;;;;4.47;2.00;;;;;;;;;;5027973;28;20033;-37
2022/01/10 08:46:16;;;;;;;2.30;1.70;;;;;;;;;;5026825;28;20199;-37
2022/01/10 08:48:41;;;;;;;3.20;1.83;;;;;;;;;;5027458;28;20037;-37
2022/01/10 08:51:07;;;;;;;5.30;1.92;;;;;;;;;;5028032;28;20026;-38
2022/01/10 08:53:33;;;;;;;3.03;1.60;;;;;;;;;;5027958;28;20036;-35
2022/01/10 08:55:58;;;;;;;2.58;1.60;;;;;;;;;;5028517;28;20053;-40
2022/01/10 08:58:26;;;;;;;3.35;1.73;;;;;;;;;;5027712;28;20022;-36
2022/01/10 09:00:51;;;;;;;2.10;1.45;;;;;;;;;;5033990;28;20587;-40
2022/01/10 09:03:17;;;;;;;2.78;1.70;;;;;;;;;;5048094;28;20029;-37
2022/01/10 09:05:42;;;;;;;3.97;1.63;;;;;;;;;;5047678;28;20502;-41
2022/01/10 09:08:08;;;;;;;4.88;1.70;;;;;;;;;;5047746;28;20049;-38
2022/01/10 09:10:34;;;;;;;2.65;1.60;;;;;;;;;;5047611;28;20514;-40
2022/01/10 09:12:59;;;;;;;2.55;1.77;;;;;;;;;;5047668;28;20618;-40
2022/01/10 09:15:25;;;;;;;2.40;1.55;;;;;;;;;;5047743;28;20055;-40
2022/01/10 09:17:50;;;;;;;4.22;1.90;;;;;;;;;;5047434;28;20056;-37
2022/01/10 09:20:16;;;;;;;2.08;1.48;;;;;;;;;;5047090;28;20024;-41
2022/01/10 09:22:41;;;;;;;2.17;1.38;;;;;;;;;;5046918;28;20095;-39
2022/01/10 09:25:07;;;;;;;2.85;1.60;;;;;;;;;;5047525;28;20029;-37
2022/01/10 09:27:33;;;;;;;2.22;1.77;;;;;;;;;;5047300;28;20518;-40
2022/01/10 09:29:58;;;;;;;5.85;4.45;;;;;;;;;;5046832;28;20033;-35
2022/01/10 09:32:24;;;;;;;7.10;5.22;;;;;;;;;;5047413;28;20033;-36
2022/01/10 09:34:49;;;;;;;5.95;4.63;;;;;;;;;;5047321;28;20029;-39
2022/01/10 09:37:15;;;;;;;5.50;4.10;;;;;;;;;;5047154;28;20017;-37
2022/01/10 09:39:41;;;;;;;5.80;4.50;;;;;;;;;;5047060;28;20040;-38
2022/01/10 09:42:06;;;;;;;5.78;4.28;;;;;;;;;;5047311;28;20021;-39
2022/01/10 09:44:34;;;;;;;6.72;4.80;;;;;;;;;;5046997;28;20538;-38
2022/01/10 09:46:59;;;;;;;7.53;4.90;;;;;;;;;;5047354;28;20029;-36
2022/01/10 09:49:25;;;;;;;5.68;4.53;;;;;;;;;;5047038;28;20462;-39
2022/01/10 09:51:51;;;;;;;5.50;4.40;;;;;;;;;;5046923;28;20028;-37
2022/01/10 09:54:16;;;;;;;5.45;4.65;;;;;;;;;;5046934;28;20024;-40
2022/01/10 09:56:41;;;;;;;5.40;4.60;;;;;;;;;;5046245;28;20029;-38
2022/01/10 09:59:07;;;;;;;5.82;4.43;;;;;;;;;;5046881;28;20029;-33
2022/01/10 10:01:34;;;;;;;5.57;4.25;;;;;;;;;;5046828;28;20045;-37
2022/01/10 10:03:59;;;;;;;5.43;4.30;;;;;;;;;;5046261;28;20025;-39
2022/01/10 10:06:26;;;;;;;5.93;4.43;;;;;;;;;;5046425;28;20036;-36
2022/01/10 10:08:52;;;;;;;6.65;4.65;;;;;;;;;;5046548;28;20060;-39
2022/01/10 10:11:17;;;;;;;6.18;4.47;;;;;;;;;;5046514;28;20024;-32
2022/01/10 10:13:56;;;;;;;5.05;4.32;;;;;;;;;;5046295;28;20487;-36
2022/01/10 10:16:22;;;;;;;5.88;4.72;;;;;;;;;;5046434;28;20033;-36
2022/01/10 10:18:48;;;;;;;5.18;4.38;;;;;;;;;;5046582;28;20025;-34
2022/01/10 10:21:18;;;;;;;5.85;4.55;;;;;;;;;;5046325;28;20029;-39
2022/01/10 10:23:46;;;;;;;5.18;4.47;;;;;;;;;;5046110;28;20376;-36
2022/01/10 10:26:19;;;;;;;5.50;4.35;;;;;;;;;;5046631;28;20069;-38
2022/01/10 10:28:45;;;;;;;5.65;4.50;;;;;;;;;;5046303;28;20550;-38
2022/01/10 10:31:12;;;;;;;6.13;4.80;;;;;;;;;;5045121;28;20643;-32
2022/01/10 10:33:46;;;;;;;4.72;4.20;;;;;;;;;;5045951;28;20024;-34
2022/01/10 10:36:12;;;;;;;5.93;4.68;;;;;;;;;;5046392;28;20035;-33
2022/01/10 10:38:37;;;;;;;5.82;4.60;;;;;;;;;;5045722;28;20025;-36
2022/01/10 10:41:04;;;;;;;5.40;4.40;;;;;;;;;;5045829;28;20115;-38
2022/01/10 10:43:34;;;;;;;5.20;4.15;;;;;;;;;;5044410;28;20021;-39
2022/01/10 10:46:01;;;;;;;5.13;4.50;;;;;;;;;;5046112;28;20098;-35
2022/01/10 10:48:26;;;;;;;3.88;3.47;;;;;;;;;;5045858;28;20025;-37
2022/01/10 10:50:54;;;;;;;4.45;3.92;;;;;;;;;;5045690;28;20408;-39
2022/01/10 10:53:19;;;;;;;4.25;3.72;;;;;;;;;;5045433;28;20032;-39
2022/01/10 10:55:45;;;;;;;4.28;3.50;;;;;;;;;;5045597;28;20021;-37
2022/01/10 10:58:11;;;;;;;4.68;3.80;;;;;;;;;;5045576;28;20241;-41
2022/01/10 11:00:37;;;;;;;4.18;3.50;;;;;;;;;;5045386;28;20094;-33
2022/01/10 11:03:02;;;;;;;4.30;3.63;;;;;;;;;;5045516;28;20029;-37
2022/01/10 11:05:29;;;;;;;4.00;3.60;;;;;;;;;;5045860;28;20029;-36
2022/01/10 11:07:55;;;;;;;4.00;3.30;;;;;;;;;;5045076;28;20025;-38
2022/01/10 11:10:22;;;;;;;4.25;3.33;;;;;;;;;;5043962;28;20020;-36
2022/01/10 11:12:55;;;;;;;4.70;3.60;;;;;;;;;;5045352;28;20055;-38
2022/01/10 11:15:22;;;;;;;3.97;3.38;;;;;;;;;;5027815;28;20029;-35
2022/01/10 11:17:47;;;;;;;4.72;3.22;;;;;;;;;;5027374;28;20029;-39
2022/01/10 11:20:17;;;;;;;3.97;3.10;;;;;;;;;;5045448;28;20029;-38
2022/01/10 11:22:45;;;;;;;3.75;3.20;;;;;;;;;;5045031;28;20071;-39
2022/01/10 11:25:30;;;;;;;3.25;2.72;;;;;;;;;;5045243;28;20032;-37
2022/01/10 11:28:08;;;;;;;3.92;3.20;;;;;;;;;;5044601;28;20075;-35
2022/01/10 11:30:44;;;;;;;4.35;3.63;;;;;;;;;;5044924;28;20025;-39
2022/01/10 11:33:32;;;;;;;4.10;3.70;;;;;;;;;;5044726;28;20090;-37
2022/01/10 11:35:59;;;;;;;4.72;4.03;;;;;;;;;;5044888;28;20107;-36
2022/01/10 11:38:26;;;;;;;6.63;4.95;;;;;;;;;;5044815;28;20041;-37
2022/01/10 11:40:57;;;;;;;6.75;5.03;;;;;;;;;;5044778;28;20128;-39
2022/01/10 11:43:57;;;;;;;7.97;5.00;;;;;;;;;;5044675;28;20029;-39
2022/01/10 11:46:43;;;;;;;9.40;6.82;;;;;;;;;;5044932;28;20124;-38
2022/01/10 11:49:08;;;;;;;8.57;6.45;;;;;;;;;;5045283;28;20036;-37
2022/01/10 11:51:49;;;;;;;7.43;6.15;;;;;;;;;;5044502;28;20102;-35
2022/01/10 11:54:35;;;;;;;7.72;6.18;;;;;;;;;;5044720;28;20090;-33
2022/01/10 11:57:03;;;;;;;8.82;7.07;;;;;;;;;;5044774;28;20033;-40
2022/01/10 11:59:52;;;;;;;8.02;6.70;;;;;;;;;;5044756;28;20495;-38
2022/01/10 12:02:19;;;;;;;7.72;6.35;;;;;;;;;;5044301;28;20044;-37
2022/01/10 12:04:49;;;;;;;7.13;5.95;;;;;;;;;;5044664;28;20028;-39
2022/01/10 12:07:16;;;;;;;7.50;6.10;;;;;;;;;;5044907;28;20071;-40
2022/01/10 12:09:42;;;;;;;8.07;6.38;;;;;;;;;;5044494;28;20041;-37
2022/01/10 12:12:08;;;;;;;8.52;6.60;;;;;;;;;;5044913;28;20530;-36
2022/01/10 12:14:34;;;;;;;8.48;7.00;;;;;;;;;;5044677;28;20084;-38
2022/01/10 12:16:59;;;;;;;7.85;6.72;;;;;;;;;;5044407;28;20415;-38
2022/01/10 12:19:25;;;;;;;8.63;6.47;;;;;;;;;;5044608;28;20044;-39
2022/01/10 12:21:51;;;;;;;9.52;7.35;;;;;;;;;;5044647;28;20120;-36
2022/01/10 12:24:16;;;;;;;10.18;7.43;;;;;;;;;;5044395;28;20553;-37
2022/01/10 12:26:42;;;;;;;8.55;6.72;;;;;;;;;;5044596;28;20057;-38
2022/01/10 12:29:09;;;;;;;7.50;6.25;;;;;;;;;;5044832;28;20035;-36
2022/01/10 12:31:35;;;;;;;9.35;6.70;;;;;;;;;;5044512;28;20071;-37
2022/01/10 12:34:01;;;;;;;8.30;6.82;;;;;;;;;;5044654;28;20025;-37
2022/01/10 12:36:27;;;;;;;7.63;6.50;;;;;;;;;;5044004;28;20017;-40
2022/01/10 12:38:55;;;;;;;7.90;6.07;;;;;;;;;;5044364;28;20045;-39
2022/01/10 12:41:20;;;;;;;6.93;5.85;;;;;;;;;;5044519;28;20229;-40
2022/01/10 12:43:48;;;;;;;8.43;6.53;;;;;;;;;;5044156;28;20503;-36
2022/01/10 12:46:14;;;;;;;7.43;6.03;;;;;;;;;;5044275;28;20134;-36
2022/01/10 12:48:40;;;;;;;7.88;6.22;;;;;;;;;;5044033;28;20036;-38
2022/01/10 12:51:05;;;;;;;7.28;5.82;;;;;;;;;;5044271;28;20017;-39
2022/01/10 12:53:31;;;;;;;6.28;5.60;;;;;;;;;;5044261;28;20075;-36
2022/01/10 12:55:57;;;;;;;7.93;6.15;;;;;;;;;;5047814;28;20029;-35
2022/01/10 12:58:22;;;;;;;7.53;5.57;;;;;;;;;;5047837;28;20033;-36
2022/01/10 13:00:48;;;;;;;7.80;5.97;;;;;;;;;;5047547;28;20430;-35
2022/01/10 13:03:14;;;;;;;5.82;5.22;;;;;;;;;;5048137;28;20028;-37
2022/01/10 13:05:39;;;;;;;8.13;6.00;;;;;;;;;;5029743;28;20095;-37
2022/01/10 13:08:05;;;;;;;6.45;5.38;;;;;;;;;;5047839;28;20032;-39
2022/01/10 13:10:35;;;;;;;7.03;5.47;;;;;;;;;;5046691;28;20021;-36
2022/01/10 13:13:02;;;;;;;7.78;5.80;;;;;;;;;;5046439;28;20043;-40
2022/01/10 13:15:37;;;;;;;6.85;5.55;;;;;;;;;;5047904;28;20032;-36
2022/01/10 13:18:03;;;;;;;6.30;5.53;;;;;;;;;;5047634;28;20029;-40
2022/01/10 13:20:32;;;;;;;6.78;5.57;;;;;;;;;;5047491;28;20083;-36
2022/01/10 13:23:03;;;;;;;7.60;5.68;;;;;;;;;;5047599;28;20462;-37
2022/01/10 13:25:31;;;;;;;6.45;5.55;;;;;;;;;;5047436;28;20087;-39
2022/01/10 13:28:06;;;;;;;6.00;5.32;;;;;;;;;;5047038;28;20037;-37
2022/01/10 13:30:32;;;;;;;6.38;5.10;;;;;;;;;;5047314;28;20070;-37
2022/01/10 13:32:59;;;;;;;6.57;5.28;;;;;;;;;;5047025;28;20041;-37
2022/01/10 13:35:25;;;;;;;6.38;5.13;;;;;;;;;;5047282;28;20029;-36
2022/01/10 13:37:59;;;;;;;5.80;4.95;;;;;;;;;;5047299;28;20037;-38
2022/01/10 13:40:34;;;;;;;6.25;5.15;;;;;;;;;;5047162;28;20036;-35
2022/01/10 13:43:04;;;;;;;6.43;4.97;;;;;;;;;;5045897;28;20636;-35
2022/01/10 13:45:43;;;;;;;6.13;4.97;;;;;;;;;;5047385;28;20051;-34
2022/01/10 13:48:34;;;;;;;6.25;4.78;;;;;;;;;;5047094;28;20074;-37
2022/01/10 13:51:03;;;;;;;5.90;4.88;;;;;;;;;;5043261;28;20648;-36
2022/01/10 13:53:30;;;;;;;5.38;4.07;;;;;;;;;;5047188;28;20033;-39
2022/01/10 13:56:07;;;;;;;5.57;4.88;;;;;;;;;;5047184;28;20111;-34
2022/01/10 13:58:33;;;;;;;5.80;4.63;;;;;;;;;;5046949;28;20041;-40
2022/01/10 14:01:00;;;;;;;4.72;4.22;;;;;;;;;;5047046;28;20025;-38
2022/01/10 14:03:27;;;;;;;4.85;4.20;;;;;;;;;;5047091;28;20036;-36
2022/01/10 14:06:12;;;;;;;5.53;4.53;;;;;;;;;;5045529;28;20483;-34
2022/01/10 14:08:39;;;;;;;5.43;4.60;;;;;;;;;;5046659;28;20068;-32
2022/01/10 14:11:05;;;;;;;4.90;4.28;;;;;;;;;;5046989;28;20554;-36
2022/01/10 14:13:31;;;;;;;4.63;4.00;;;;;;;;;;5047064;28;20027;-39
2022/01/10 14:15:57;;;;;;;5.57;4.70;;;;;;;;;;5045898;28;20074;-36
2022/01/10 14:18:22;;;;;;;5.57;4.40;;;;;;;;;;5044464;28;20123;-37
2022/01/10 14:20:48;;;;;;;6.47;4.22;;;;;;;;;;5046561;28;20040;-40
2022/01/10 14:23:14;;;;;;;4.88;4.30;;;;;;;;;;5046387;28;20557;-38
2022/01/10 14:25:40;;;;;;;6.40;3.90;;;;;;;;;;5046252;28;20033;-35
2022/01/10 14:28:05;;;;;;;4.78;4.03;;;;;;;;;;5045619;28;20083;-37
2022/01/10 14:30:31;;;;;;;5.40;3.67;;;;;;;;;;5041920;28;20033;-36
2022/01/10 14:32:57;;;;;;;4.60;3.75;;;;;;;;;;5026068;28;20496;-39
2022/01/10 14:35:23;;;;;;;4.07;3.47;;;;;;;;;;5026402;28;20477;-39
2022/01/10 14:37:51;;;;;;;4.43;3.67;;;;;;;;;;5025937;28;20030;-36
2022/01/10 14:40:17;;;;;;;4.53;3.92;;;;;;;;;;5026367;28;20030;-36
2022/01/10 14:42:42;;;;;;;4.35;3.78;;;;;;;;;;5025991;28;20059;-32
2022/01/10 14:45:10;;;;;;;4.90;3.80;;;;;;;;;;5024865;28;20029;-38
2022/01/10 14:47:37;;;;;;;4.72;3.88;;;;;;;;;;5024825;28;20034;-34
2022/01/10 14:50:03;;;;;;;5.47;3.60;;;;;;;;;;5026174;28;20108;-38
2022/01/10 14:52:28;;;;;;;5.32;3.72;;;;;;;;;;5025962;28;20400;-34
2022/01/10 14:54:54;;;;;;;6.38;4.20;;;;;;;;;;5025716;28;20056;-35